createdAt,value
2019-06-07T00:00:38.006Z,99.90
2019-06-07T00:03:00.373Z,99.90
2019-06-07T00:05:30.527Z,99.90
2019-06-07T00:08:07.859Z,99.90
2019-06-07T00:10:36.570Z,99.90
2019-06-07T00:13:04.748Z,99.90
2019-06-07T00:15:34.851Z,99.90
2019-06-07T00:18:04.941Z,99.90
2019-06-07T00:20:35.036Z,99.90
2019-06-07T00:23:05.264Z,99.90
2019-06-07T00:25:35.351Z,99.90
2019-06-07T00:28:05.520Z,99.90
2019-06-07T00:30:50.130Z,99.90
2019-06-07T00:33:07.404Z,99.90
2019-06-07T00:35:37.503Z,99.90
2019-06-07T00:38:07.660Z,99.90
2019-06-07T00:40:37.751Z,99.90
2019-06-07T00:43:07.853Z,99.90
2019-06-07T00:45:37.940Z,99.90
2019-06-07T00:48:08.213Z,99.90
2019-06-07T00:50:38.303Z,99.90
2019-06-07T00:53:15.487Z,99.90
2019-06-07T00:55:40.183Z,99.90
2019-06-07T00:58:10.267Z,99.90
2019-06-07T01:00:40.935Z,99.90
2019-06-07T01:03:12.595Z,99.90
2019-06-07T01:05:42.899Z,99.90
2019-06-07T01:08:14.917Z,99.90
2019-06-07T01:10:53.556Z,99.90
2019-06-07T01:13:18.542Z,99.90
2019-06-07T01:15:48.983Z,99.90
2019-06-07T01:18:37.696Z,99.90
2019-06-07T01:20:51.019Z,99.90
2019-06-07T01:23:59.375Z,99.90
2019-06-07T01:25:54.807Z,99.90
2019-06-07T01:28:27.096Z,99.90
2019-06-07T01:30:56.710Z,99.90
2019-06-07T01:33:48.984Z,99.90
2019-06-07T01:35:58.595Z,99.90
2019-06-07T01:38:30.028Z,99.90
2019-06-07T01:41:00.631Z,99.90
2019-06-07T01:43:31.265Z,99.90
2019-06-07T01:46:01.409Z,99.90
2019-06-07T01:48:48.610Z,99.90
2019-06-07T01:51:03.326Z,99.90
2019-06-07T01:53:33.407Z,99.90
2019-06-07T01:56:03.507Z,99.90
2019-06-07T01:58:33.607Z,99.90
2019-06-07T02:01:03.703Z,99.90
2019-06-07T02:03:33.862Z,99.90
2019-06-07T02:06:03.987Z,99.90
2019-06-07T02:08:34.556Z,99.90
2019-06-07T02:11:05.001Z,99.90
2019-06-07T02:13:35.116Z,99.90
2019-06-07T02:16:05.204Z,99.90
2019-06-07T02:18:35.323Z,99.90
2019-06-07T02:21:05.463Z,99.90
2019-06-07T02:23:35.556Z,99.90
2019-06-07T02:26:05.956Z,99.90
2019-06-07T02:28:44.926Z,99.90
2019-06-07T02:31:07.851Z,99.90
2019-06-07T02:33:40.101Z,99.90
2019-06-07T02:36:10.672Z,99.90
2019-06-07T02:38:40.801Z,99.90
2019-06-07T02:41:10.857Z,99.90
2019-06-07T02:43:40.962Z,99.90
2019-06-07T02:46:26.457Z,99.90
2019-06-07T02:48:44.481Z,99.90
2019-06-07T02:51:14.654Z,99.90
2019-06-07T02:53:44.754Z,99.90
2019-06-07T02:58:46.642Z,99.90
2019-06-07T03:01:17.567Z,99.90
2019-06-07T03:03:47.864Z,99.90
2019-06-07T03:06:19.172Z,99.90
2019-06-07T03:08:49.300Z,99.90
2019-06-07T03:11:24.267Z,99.90
2019-06-07T03:13:56.740Z,99.90
2019-06-07T03:16:36.768Z,99.90
2019-06-07T03:19:13.173Z,99.90
2019-06-07T03:21:43.456Z,99.90
2019-06-07T03:24:13.629Z,99.90
2019-06-07T03:29:21.800Z,99.90
2019-06-07T03:31:51.893Z,99.90
2019-06-07T03:34:22.221Z,99.90
2019-06-07T03:36:52.477Z,99.90
2019-06-07T03:39:22.663Z,99.90
2019-06-07T03:42:05.784Z,99.90
2019-06-07T03:44:24.612Z,99.90
2019-06-07T03:46:54.652Z,99.90
2019-06-07T03:49:24.820Z,99.90
2019-06-07T03:51:54.911Z,99.90
2019-06-07T03:54:25.025Z,99.90
2019-06-07T03:56:55.100Z,99.90
2019-06-07T03:59:25.197Z,99.90
2019-06-07T04:01:55.297Z,99.90
2019-06-07T04:04:25.431Z,99.90
2019-06-07T04:07:01.269Z,99.90
2019-06-07T04:09:35.052Z,99.90
2019-06-07T04:12:04.502Z,99.90
2019-06-07T04:14:35.143Z,99.90
2019-06-07T04:17:06.380Z,99.90
2019-06-07T04:19:39.411Z,99.90
2019-06-07T04:22:08.333Z,99.90
2019-06-07T04:24:41.851Z,99.90
2019-06-07T04:27:10.236Z,99.90
2019-06-07T04:30:03.153Z,99.90
2019-06-07T04:32:12.117Z,99.90
2019-06-07T04:34:43.275Z,99.90
2019-06-07T04:37:14.636Z,99.90
2019-06-07T04:39:45.840Z,99.90
2019-06-07T04:42:19.716Z,99.90
2019-06-07T04:44:51.258Z,99.90
2019-06-07T04:47:22.096Z,99.90
2019-06-07T04:49:53.305Z,99.90
2019-06-07T04:52:23.356Z,99.90
2019-06-07T04:54:53.440Z,99.90
2019-06-07T04:57:23.547Z,99.90
2019-06-07T05:00:12.045Z,99.90
2019-06-07T05:02:25.436Z,99.90
2019-06-07T05:04:55.532Z,99.90
2019-06-07T05:07:26.643Z,99.90
2019-06-07T05:09:56.816Z,99.90
2019-06-07T05:12:26.912Z,99.90
2019-06-07T05:14:57.088Z,99.90
2019-06-07T05:17:28.905Z,99.90
2019-06-07T05:19:58.972Z,99.90
2019-06-07T05:22:31.669Z,99.90
2019-06-07T05:25:01.665Z,99.90
2019-06-07T05:27:33.827Z,99.90
2019-06-07T05:30:24.257Z,99.90
2019-06-07T05:32:41.971Z,99.90
2019-06-07T05:35:12.559Z,99.90
2019-06-07T05:37:45.862Z,99.90
2019-06-07T05:40:19.112Z,99.90
2019-06-07T05:42:49.212Z,99.90
2019-06-07T05:45:23.957Z,99.90
2019-06-07T05:48:13.360Z,99.90
2019-06-07T05:50:56.747Z,99.90
2019-06-07T05:53:22.621Z,99.90
2019-06-07T05:55:52.852Z,99.90
2019-06-07T05:58:24.909Z,99.90
2019-06-07T06:00:55.024Z,99.90
2019-06-07T06:03:25.121Z,99.90
2019-06-07T06:06:06.287Z,99.90
2019-06-07T06:08:39.253Z,99.90
2019-06-07T06:11:10.136Z,99.90
2019-06-07T06:14:03.444Z,99.90
2019-06-07T06:16:14.884Z,99.90
2019-06-07T06:18:47.206Z,99.90
2019-06-07T06:21:19.991Z,99.90
2019-06-07T06:23:54.780Z,99.90
2019-06-07T06:26:26.825Z,99.90
2019-06-07T06:28:58.898Z,99.90
2019-06-07T06:31:28.988Z,99.90
2019-06-07T06:34:01.068Z,99.90
2019-06-07T06:36:32.110Z,99.90
2019-06-07T06:39:08.452Z,99.90
2019-06-07T06:42:00.839Z,99.90
2019-06-07T06:44:43.824Z,99.90
2019-06-07T06:47:16.748Z,99.90
2019-06-07T06:49:49.996Z,99.90
2019-06-07T06:52:22.513Z,99.90
2019-06-07T06:55:00.142Z,99.90
2019-06-07T06:57:43.493Z,99.90
2019-06-07T07:00:46.378Z,99.90
2019-06-07T07:03:55.966Z,99.90
2019-06-07T07:05:50.813Z,99.90
2019-06-07T07:08:20.136Z,99.90
2019-06-07T07:10:53.317Z,99.90
2019-06-07T07:13:23.932Z,99.90
2019-06-07T07:15:58.055Z,99.90
2019-06-07T07:18:27.717Z,99.90
2019-06-07T07:20:57.905Z,97.80
2019-06-07T07:23:29.001Z,96.00
2019-06-07T07:26:00.126Z,96.60
2019-06-07T07:28:32.596Z,95.80
2019-06-07T07:31:02.674Z,94.20
2019-06-07T07:34:20.841Z,93.30
2019-06-07T07:36:28.114Z,93.40
2019-06-07T07:39:06.875Z,93.00
2019-06-07T07:41:36.959Z,92.90
2019-06-07T07:44:07.958Z,93.00
2019-06-07T07:46:41.889Z,91.10
2019-06-07T07:49:12.940Z,90.70
2019-06-07T07:51:44.053Z,90.90
2019-06-07T07:54:14.177Z,87.00
2019-06-07T07:56:51.509Z,84.30
2019-06-07T07:59:40.689Z,80.80
2019-06-07T08:01:56.141Z,80.30
2019-06-07T08:05:12.762Z,80.10
2019-06-07T08:07:13.686Z,78.60
2019-06-07T08:10:03.402Z,76.70
2019-06-07T08:12:54.722Z,74.10
2019-06-07T08:15:03.751Z,69.60
2019-06-07T08:17:35.197Z,68.90
2019-06-07T08:20:10.388Z,66.90
2019-06-07T08:22:40.469Z,67.50
2019-06-07T08:25:12.960Z,68.60
2019-06-07T08:27:43.037Z,67.30
2019-06-07T08:30:47.129Z,65.20
2019-06-07T08:32:51.566Z,64.10
2019-06-07T08:36:03.719Z,64.20
2019-06-07T08:40:36.111Z,63.00
2019-06-07T08:43:19.594Z,60.30
2019-06-07T08:45:38.931Z,58.60
2019-06-07T08:48:26.752Z,58.70
2019-06-07T08:50:46.731Z,57.40
2019-06-07T08:53:16.800Z,57.70
2019-06-07T08:55:58.752Z,56.40
2019-06-07T08:58:27.533Z,54.80
2019-06-07T09:01:03.626Z,52.90
2019-06-07T09:03:29.398Z,52.40
2019-06-07T09:07:00.928Z,52.60
2019-06-07T09:08:43.573Z,52.40
2019-06-07T09:11:16.856Z,52.60
2019-06-07T09:13:46.951Z,51.30
2019-06-07T09:16:17.026Z,51.80
2019-06-07T09:18:47.100Z,50.70
2019-06-07T09:21:17.219Z,51.40
2019-06-07T09:23:47.260Z,53.30
2019-06-07T09:26:18.776Z,52.70
2019-06-07T09:28:49.237Z,53.20
2019-06-07T09:31:22.425Z,52.80
2019-06-07T09:33:53.449Z,53.80
2019-06-07T09:36:23.534Z,51.50
2019-06-07T09:39:06.264Z,52.60
2019-06-07T09:41:46.737Z,52.80
2019-06-07T09:44:22.415Z,54.20
2019-06-07T09:46:37.205Z,53.70
2019-06-07T09:49:18.316Z,52.90
2019-06-07T09:51:40.057Z,54.20
2019-06-07T09:54:11.492Z,53.70
2019-06-07T09:56:42.521Z,51.40
2019-06-07T09:59:14.649Z,51.30
2019-06-07T10:01:46.598Z,51.40
2019-06-07T10:04:30.928Z,50.70
2019-06-07T10:06:53.225Z,51.10
2019-06-07T10:10:09.406Z,51.40
2019-06-07T10:12:04.676Z,50.60
2019-06-07T10:14:35.718Z,50.30
2019-06-07T10:17:09.109Z,50.50
2019-06-07T10:19:39.345Z,51.00
2019-06-07T10:22:15.479Z,49.40
2019-06-07T10:24:48.503Z,47.40
2019-06-07T10:27:18.607Z,48.20
2019-06-07T10:29:51.348Z,46.30
2019-06-07T10:32:36.605Z,46.20
2019-06-07T10:35:09.613Z,46.40
2019-06-07T10:37:39.775Z,47.00
2019-06-07T10:40:11.352Z,46.20
2019-06-07T10:42:47.313Z,46.80
2019-06-07T10:45:22.345Z,45.80
2019-06-07T10:47:53.480Z,47.50
2019-06-07T10:50:23.795Z,46.90
2019-06-07T10:52:53.877Z,47.60
2019-06-07T10:55:23.958Z,46.80
2019-06-07T10:57:55.033Z,46.70
2019-06-07T11:00:27.022Z,46.40
2019-06-07T11:02:59.119Z,46.80
2019-06-07T11:05:37.057Z,46.60
2019-06-07T11:08:08.024Z,47.50
2019-06-07T11:10:39.037Z,46.00
2019-06-07T11:13:10.394Z,44.80
2019-06-07T11:15:52.589Z,44.90
2019-06-07T11:18:38.586Z,45.00
2019-06-07T11:21:10.096Z,45.60
2019-06-07T11:23:40.413Z,45.90
2019-06-07T11:26:16.537Z,45.00
2019-06-07T11:29:03.317Z,45.60
2019-06-07T11:31:33.416Z,45.40
2019-06-07T11:34:03.497Z,44.50
2019-06-07T11:36:45.556Z,44.00
2019-06-07T11:39:21.423Z,44.90
2019-06-07T11:41:54.425Z,45.40
2019-06-07T11:44:24.513Z,43.90
2019-06-07T11:47:00.777Z,43.80
2019-06-07T11:49:30.853Z,45.30
2019-06-07T11:52:00.943Z,44.60
2019-06-07T11:54:31.959Z,45.10
2019-06-07T11:57:02.039Z,44.10
2019-06-07T11:59:33.009Z,43.30
2019-06-07T12:02:03.094Z,43.60
2019-06-07T12:04:35.211Z,43.50
2019-06-07T12:07:05.683Z,42.50
2019-06-07T12:09:36.770Z,42.50
2019-06-07T12:12:10.370Z,43.30
2019-06-07T12:14:46.437Z,41.20
2019-06-07T12:17:17.627Z,42.00
2019-06-07T12:19:48.016Z,42.50
2019-06-07T12:22:18.337Z,43.70
2019-06-07T12:24:48.686Z,43.40
2019-06-07T12:27:23.021Z,42.30
2019-06-07T12:29:53.105Z,43.00
2019-06-07T12:32:25.169Z,43.30
2019-06-07T12:34:55.263Z,44.00
2019-06-07T12:37:42.014Z,43.80
2019-06-07T12:39:57.117Z,42.90
2019-06-07T12:42:30.329Z,43.60
2019-06-07T12:45:06.498Z,44.30
2019-06-07T12:47:48.804Z,43.30
2019-06-07T12:50:19.642Z,42.80
2019-06-07T12:52:49.777Z,44.60
2019-06-07T12:55:20.794Z,43.90
2019-06-07T12:57:51.842Z,42.90
2019-06-07T13:00:24.438Z,42.20
2019-06-07T13:02:55.657Z,42.90
2019-06-07T13:05:25.747Z,41.50
2019-06-07T13:07:56.719Z,41.90
2019-06-07T13:10:28.404Z,40.40
2019-06-07T13:13:01.662Z,40.90
2019-06-07T13:15:33.722Z,41.70
2019-06-07T13:18:04.830Z,41.40
2019-06-07T13:20:34.916Z,42.10
2019-06-07T13:23:05.077Z,42.30
2019-06-07T13:25:46.208Z,41.30
2019-06-07T13:28:13.034Z,41.80
2019-06-07T13:30:43.110Z,41.20
2019-06-07T13:33:16.853Z,41.30
2019-06-07T13:35:46.982Z,39.70
2019-06-07T13:38:26.950Z,40.80
2019-06-07T13:40:57.654Z,42.30
2019-06-07T13:43:40.869Z,41.90
2019-06-07T13:46:13.024Z,41.80
2019-06-07T13:48:42.734Z,40.80
2019-06-07T13:51:12.839Z,41.30
2019-06-07T13:53:42.922Z,41.70
2019-06-07T13:56:13.007Z,42.70
2019-06-07T13:58:43.095Z,42.60
2019-06-07T14:01:13.174Z,42.80
2019-06-07T14:03:43.254Z,42.20
2019-06-07T14:06:34.516Z,41.60
2019-06-07T14:09:06.946Z,41.50
2019-06-07T14:11:50.111Z,42.50
2019-06-07T14:14:08.947Z,42.20
2019-06-07T14:16:39.033Z,42.00
2019-06-07T14:19:09.117Z,42.30
2019-06-07T14:21:43.378Z,42.10
2019-06-07T14:24:16.569Z,42.30
2019-06-07T14:27:06.435Z,41.40
2019-06-07T14:29:42.291Z,40.50
2019-06-07T14:32:22.684Z,41.00
2019-06-07T14:34:52.879Z,42.00
2019-06-07T14:37:22.950Z,41.70
2019-06-07T14:39:53.033Z,42.50
2019-06-07T14:42:23.461Z,42.00
2019-06-07T14:44:53.658Z,43.20
2019-06-07T14:47:23.973Z,41.20
2019-06-07T14:49:54.054Z,41.90
2019-06-07T14:52:24.439Z,43.20
2019-06-07T14:54:54.489Z,42.90
2019-06-07T14:57:25.102Z,43.30
2019-06-07T14:59:55.246Z,42.00
2019-06-07T15:02:26.341Z,41.80
2019-06-07T15:04:56.920Z,42.80
2019-06-07T15:07:27.014Z,40.70
2019-06-07T15:09:57.119Z,41.40
2019-06-07T15:12:27.540Z,42.80
2019-06-07T15:15:06.826Z,43.00
2019-06-07T15:17:36.919Z,43.40
2019-06-07T15:20:10.314Z,43.20
2019-06-07T15:22:40.402Z,42.80
2019-06-07T15:25:11.680Z,44.00
2019-06-07T15:27:41.778Z,42.60
2019-06-07T15:30:12.769Z,42.80
2019-06-07T15:32:42.853Z,43.60
2019-06-07T15:35:14.311Z,41.70
2019-06-07T15:37:44.394Z,43.00
2019-06-07T15:40:14.982Z,42.80
2019-06-07T15:42:52.413Z,42.10
2019-06-07T15:45:19.220Z,41.70
2019-06-07T15:47:49.303Z,42.80
2019-06-07T15:50:19.902Z,44.30
2019-06-07T15:52:49.979Z,43.70
2019-06-07T15:55:31.134Z,42.00
2019-06-07T15:58:01.129Z,42.80
2019-06-07T16:00:31.522Z,43.60
2019-06-07T16:03:07.946Z,43.60
2019-06-07T16:05:38.318Z,44.00
2019-06-07T16:08:08.351Z,45.00
2019-06-07T16:10:40.989Z,45.50
2019-06-07T16:13:19.284Z,46.40
2019-06-07T16:15:49.370Z,46.50
2019-06-07T16:18:19.450Z,46.50
2019-06-07T16:20:50.648Z,45.90
2019-06-07T16:23:20.730Z,45.90
2019-06-07T16:25:51.786Z,46.10
2019-06-07T16:28:21.878Z,46.40
2019-06-07T16:30:51.958Z,45.50
2019-06-07T16:33:22.055Z,44.30
2019-06-07T16:35:52.140Z,44.80
2019-06-07T16:38:22.218Z,44.70
2019-06-07T16:41:00.071Z,45.80
2019-06-07T16:43:31.104Z,45.80
2019-06-07T16:46:03.171Z,46.40
2019-06-07T16:48:33.248Z,44.50
2019-06-07T16:51:04.398Z,44.90
2019-06-07T16:53:34.483Z,44.90
2019-06-07T16:56:05.615Z,44.30
2019-06-07T16:58:35.676Z,46.20
2019-06-07T17:01:06.764Z,45.40
2019-06-07T17:03:37.314Z,45.60
2019-06-07T17:06:07.403Z,46.30
2019-06-07T17:08:46.305Z,47.00
2019-06-07T17:11:16.463Z,46.70
2019-06-07T17:13:46.556Z,47.40
2019-06-07T17:16:19.523Z,48.00
2019-06-07T17:18:51.594Z,47.90
2019-06-07T17:21:21.682Z,46.50
2019-06-07T17:23:51.764Z,47.00
2019-06-07T17:26:22.790Z,46.90
2019-06-07T17:28:52.899Z,48.40
2019-06-07T17:31:23.944Z,48.50
2019-06-07T17:33:55.060Z,48.60
2019-06-07T17:36:26.136Z,48.50
2019-06-07T17:38:56.211Z,47.70
2019-06-07T17:41:29.335Z,49.00
2019-06-07T17:44:00.579Z,50.00
2019-06-07T17:46:30.807Z,50.80
2019-06-07T17:49:00.920Z,50.40
2019-06-07T17:51:31.013Z,49.40
2019-06-07T17:54:08.834Z,49.00
2019-06-07T17:56:42.309Z,49.50
2019-06-07T17:59:12.558Z,49.70
2019-06-07T18:02:03.319Z,49.10
2019-06-07T18:04:14.411Z,49.30
2019-06-07T18:06:47.244Z,49.20
2019-06-07T18:09:17.791Z,49.40
2019-06-07T18:11:47.994Z,50.20
2019-06-07T18:14:18.134Z,50.70
2019-06-07T18:16:48.680Z,51.40
2019-06-07T18:19:20.190Z,52.00
2019-06-07T18:21:56.049Z,52.70
2019-06-07T18:24:23.020Z,52.70
2019-06-07T18:26:53.114Z,52.70
2019-06-07T18:29:23.223Z,53.30
2019-06-07T18:31:55.249Z,53.80
2019-06-07T18:34:29.959Z,54.20
2019-06-07T18:37:01.047Z,54.30
2019-06-07T18:39:31.138Z,55.20
2019-06-07T18:42:02.190Z,55.30
2019-06-07T18:44:32.276Z,55.70
2019-06-07T18:47:02.542Z,56.30
2019-06-07T18:49:35.999Z,56.60
2019-06-07T18:52:15.451Z,56.90
2019-06-07T18:54:52.985Z,57.00
2019-06-07T18:57:23.206Z,57.20
2019-06-07T18:59:56.426Z,57.20
2019-06-07T19:02:26.704Z,57.40
2019-06-07T19:04:58.328Z,57.40
2019-06-07T19:07:28.457Z,57.30
2019-06-07T19:09:59.435Z,57.40
2019-06-07T19:12:37.582Z,57.60
2019-06-07T19:15:11.178Z,57.80
2019-06-07T19:17:43.185Z,57.80
2019-06-07T19:20:14.570Z,58.00
2019-06-07T19:22:44.722Z,58.80
2019-06-07T19:25:16.779Z,59.20
2019-06-07T19:27:46.929Z,59.20
2019-06-07T19:30:20.747Z,59.60
2019-06-07T19:32:51.430Z,59.80
2019-06-07T19:35:21.906Z,60.20
2019-06-07T19:37:51.999Z,60.70
2019-06-07T19:40:23.574Z,60.90
2019-06-07T19:42:54.614Z,61.30
2019-06-07T19:45:30.161Z,62.90
2019-06-07T19:47:56.722Z,64.20
2019-06-07T19:50:28.761Z,65.30
2019-06-07T19:52:59.214Z,65.70
2019-06-07T19:55:29.299Z,66.10
2019-06-07T19:57:59.673Z,66.90
2019-06-07T20:00:30.767Z,67.10
2019-06-07T20:03:02.103Z,67.10
2019-06-07T20:05:34.030Z,67.00
2019-06-07T20:08:10.130Z,67.10
2019-06-07T20:10:40.212Z,66.70
2019-06-07T20:13:19.029Z,66.60
2019-06-07T20:19:44.368Z,67.30
2019-06-07T20:22:17.509Z,67.20
2019-06-07T20:24:50.587Z,67.80
2019-06-07T20:27:20.679Z,69.00
2019-06-07T20:29:50.755Z,71.30
2019-06-07T20:32:26.587Z,75.20
2019-06-07T20:34:57.588Z,81.30
2019-06-07T20:37:27.819Z,91.70
2019-06-07T20:40:02.223Z,99.20
2019-06-07T20:42:32.343Z,99.90
2019-06-07T20:45:04.027Z,99.90
2019-06-07T20:47:34.095Z,99.90
2019-06-07T20:50:09.022Z,98.30
2019-06-07T20:52:41.729Z,98.00
2019-06-07T20:55:13.892Z,98.50
2019-06-07T20:57:43.994Z,99.20
2019-06-07T21:00:21.331Z,99.20
2019-06-07T21:02:47.467Z,99.10
2019-06-07T21:05:17.613Z,98.50
2019-06-07T21:07:47.663Z,96.90
2019-06-07T21:10:20.902Z,97.00
2019-06-07T21:12:51.951Z,97.30
2019-06-07T21:15:22.025Z,96.80
2019-06-07T21:17:52.109Z,93.40
2019-06-07T21:20:22.192Z,91.50
2019-06-07T21:22:52.620Z,91.00
2019-06-07T21:25:22.704Z,90.70
2019-06-07T21:27:54.724Z,90.60
2019-06-07T21:30:24.807Z,90.90
2019-06-07T21:32:54.892Z,91.10
2019-06-07T21:35:27.539Z,91.10
2019-06-07T21:38:01.973Z,91.50
2019-06-07T21:40:34.007Z,91.90
2019-06-07T21:43:04.322Z,92.20
2019-06-07T21:45:41.101Z,91.70
2019-06-07T21:48:11.630Z,90.80
2019-06-07T21:50:41.959Z,89.10
2019-06-07T21:53:12.947Z,88.40
2019-06-07T21:55:43.105Z,86.20
2019-06-07T21:58:18.272Z,87.00
2019-06-07T22:01:06.715Z,86.70
2019-06-07T22:03:36.935Z,85.40
2019-06-07T22:06:07.614Z,85.20
2019-06-07T22:08:37.911Z,84.80
2019-06-07T22:11:08.294Z,84.70
2019-06-07T22:13:38.364Z,84.70
2019-06-07T22:16:24.508Z,84.40
2019-06-07T22:18:40.236Z,84.70
2019-06-07T22:21:10.725Z,85.10
2019-06-07T22:23:43.682Z,85.20
2019-06-07T22:26:13.273Z,85.20
2019-06-07T22:28:43.551Z,85.30
2019-06-07T22:31:14.958Z,85.20
2019-06-07T22:33:45.105Z,85.40
2019-06-07T22:36:19.442Z,85.70
2019-06-07T22:38:49.560Z,85.90
2019-06-07T22:41:19.652Z,86.20
2019-06-07T22:43:50.627Z,86.60
2019-06-07T22:46:35.925Z,86.60
2019-06-07T22:48:55.610Z,87.10
2019-06-07T22:51:25.703Z,87.00
2019-06-07T22:53:56.671Z,87.10
2019-06-07T22:56:28.412Z,87.50
2019-06-07T22:59:00.406Z,88.30
2019-06-07T23:01:42.515Z,88.90
2019-06-07T23:04:12.614Z,89.50
2019-06-07T23:06:42.683Z,89.90
2019-06-07T23:09:12.924Z,90.00
2019-06-07T23:11:42.931Z,90.40
2019-06-07T23:14:13.474Z,90.90
2019-06-07T23:16:54.908Z,91.60
2019-06-07T23:19:16.229Z,91.90
2019-06-07T23:21:56.269Z,92.60
2019-06-07T23:24:32.435Z,93.00
2019-06-07T23:27:02.516Z,93.60
2019-06-07T23:29:38.605Z,93.90
2019-06-07T23:32:08.688Z,94.20
2019-06-07T23:34:38.777Z,94.60
2019-06-07T23:37:08.871Z,95.00
2019-06-07T23:39:39.027Z,95.60
2019-06-07T23:42:09.415Z,95.90
2019-06-07T23:44:39.526Z,96.30
2019-06-07T23:47:17.301Z,96.40
2019-06-07T23:49:49.180Z,96.70
2019-06-07T23:52:20.163Z,96.30
2019-06-07T23:54:50.255Z,95.70
2019-06-07T23:57:20.992Z,95.10
2019-06-07T23:59:52.432Z,94.70
